createdAt,value
2017-12-21T00:02:07.760Z,1.10
2017-12-21T00:04:34.218Z,1.10
2017-12-21T00:07:01.442Z,1.10
2017-12-21T00:09:27.849Z,1.10
2017-12-21T00:11:55.053Z,1.10
2017-12-21T00:14:21.488Z,1.10
2017-12-21T00:16:47.963Z,1.10
2017-12-21T00:19:14.453Z,1.10
2017-12-21T00:21:40.911Z,1.10
2017-12-21T00:24:07.639Z,1.00
2017-12-21T00:26:34.856Z,1.00
2017-12-21T00:29:01.360Z,0.90
2017-12-21T00:31:27.833Z,1.00
2017-12-21T00:33:54.317Z,1.00
2017-12-21T00:36:20.745Z,1.00
2017-12-21T00:38:47.165Z,0.90
2017-12-21T00:41:14.624Z,1.00
2017-12-21T00:43:41.030Z,1.00
2017-12-21T00:46:11.373Z,0.90
2017-12-21T00:48:37.827Z,1.00
2017-12-21T00:51:05.041Z,0.90
2017-12-21T00:53:32.396Z,0.90
2017-12-21T00:55:58.800Z,1.00
2017-12-21T00:58:25.404Z,1.00
2017-12-21T01:00:51.864Z,1.00
2017-12-21T01:03:18.269Z,1.00
2017-12-21T01:05:45.051Z,1.00
2017-12-21T01:08:11.489Z,1.00
2017-12-21T01:10:37.966Z,1.00
2017-12-21T01:13:04.433Z,1.00
2017-12-21T01:15:31.597Z,1.00
2017-12-21T01:17:58.049Z,1.00
2017-12-21T01:20:24.460Z,1.00
2017-12-21T01:22:50.924Z,1.00
2017-12-21T01:25:17.405Z,1.00
2017-12-21T01:27:44.624Z,1.00
2017-12-21T01:30:11.045Z,0.90
2017-12-21T01:32:37.502Z,1.00
2017-12-21T01:35:03.901Z,1.00
2017-12-21T01:37:30.340Z,1.00
2017-12-21T01:39:56.801Z,1.00
2017-12-21T01:42:23.366Z,1.00
2017-12-21T01:44:49.906Z,1.00
2017-12-21T01:47:16.435Z,1.00
2017-12-21T01:49:43.685Z,1.00
2017-12-21T01:52:10.222Z,1.00
2017-12-21T01:54:36.840Z,1.00
2017-12-21T01:57:03.296Z,1.10
2017-12-21T01:59:29.770Z,1.00
2017-12-21T02:01:56.265Z,1.00
2017-12-21T02:04:22.738Z,0.90
2017-12-21T02:06:49.248Z,1.00
2017-12-21T02:09:15.710Z,1.00
2017-12-21T02:11:42.188Z,1.00
2017-12-21T02:14:08.622Z,0.90
2017-12-21T02:16:35.081Z,0.90
2017-12-21T02:19:01.504Z,0.90
2017-12-21T02:21:27.973Z,0.90
2017-12-21T02:23:55.215Z,0.90
2017-12-21T02:26:21.689Z,0.90
2017-12-21T02:28:48.269Z,0.90
2017-12-21T02:31:14.745Z,0.90
2017-12-21T02:33:41.241Z,0.90
2017-12-21T02:36:07.730Z,1.00
2017-12-21T02:38:34.965Z,1.10
2017-12-21T02:41:02.180Z,1.00
2017-12-21T02:43:28.674Z,1.00
2017-12-21T02:45:55.185Z,1.00
2017-12-21T02:48:21.689Z,1.00
2017-12-21T02:50:48.246Z,1.00
2017-12-21T02:53:15.523Z,1.00
2017-12-21T02:55:42.022Z,1.00
2017-12-21T02:58:08.528Z,1.00
2017-12-21T03:00:35.101Z,1.00
2017-12-21T03:03:01.581Z,1.00
2017-12-21T03:05:28.125Z,1.00
2017-12-21T03:07:54.628Z,1.00
2017-12-21T03:10:21.134Z,1.00
2017-12-21T03:12:47.770Z,1.00
2017-12-21T03:15:14.319Z,0.90
2017-12-21T03:17:41.515Z,1.00
2017-12-21T03:20:07.981Z,0.90
2017-12-21T03:22:34.442Z,1.00
2017-12-21T03:25:00.941Z,0.90
2017-12-21T03:27:27.414Z,1.00
2017-12-21T03:42:48.273Z,1.00
2017-12-21T03:45:14.758Z,1.00
2017-12-21T03:47:41.182Z,1.00
2017-12-21T03:50:08.357Z,1.00
2017-12-21T03:52:34.822Z,1.00
2017-12-21T03:55:01.278Z,1.00
2017-12-21T03:57:27.751Z,0.90
2017-12-21T03:59:54.194Z,0.90
2017-12-21T04:02:20.673Z,1.00
2017-12-21T04:04:47.482Z,0.90
2017-12-21T04:07:13.910Z,1.00
2017-12-21T04:09:41.089Z,1.00
2017-12-21T04:12:07.546Z,1.00
2017-12-21T04:14:34.817Z,1.00
2017-12-21T04:17:01.284Z,1.00
2017-12-21T04:19:27.873Z,1.00
2017-12-21T04:21:54.337Z,1.00
2017-12-21T04:24:20.769Z,1.00
2017-12-21T04:26:47.218Z,1.00
2017-12-21T04:29:13.696Z,1.10
2017-12-21T04:31:40.174Z,1.10
2017-12-21T04:34:06.593Z,1.10
2017-12-21T04:36:33.047Z,1.00
2017-12-21T04:38:59.478Z,1.10
2017-12-21T04:41:25.930Z,1.10
2017-12-21T04:43:52.406Z,1.10
2017-12-21T04:46:19.617Z,1.10
2017-12-21T04:48:46.045Z,1.10
2017-12-21T04:51:12.514Z,1.10
2017-12-21T04:53:38.976Z,1.10
2017-12-21T04:56:05.429Z,1.10
2017-12-21T04:58:31.943Z,1.10
2017-12-21T05:00:58.385Z,1.10
2017-12-21T05:03:24.834Z,1.10
2017-12-21T05:05:51.294Z,1.20
2017-12-21T05:08:17.733Z,1.10
2017-12-21T05:10:44.218Z,1.10
2017-12-21T05:13:10.662Z,1.10
2017-12-21T05:15:37.150Z,1.10
2017-12-21T05:18:04.383Z,1.20
2017-12-21T05:20:30.800Z,1.20
2017-12-21T05:22:57.273Z,1.20
2017-12-21T05:25:23.731Z,1.20
2017-12-21T05:27:50.156Z,1.20
2017-12-21T05:30:17.340Z,1.20
2017-12-21T05:32:43.822Z,1.10
2017-12-21T05:35:10.345Z,1.20
2017-12-21T05:37:36.942Z,1.20
2017-12-21T05:40:03.403Z,1.20
2017-12-21T05:42:29.826Z,1.10
2017-12-21T05:44:56.257Z,1.20
2017-12-21T05:47:22.689Z,1.20
2017-12-21T05:49:49.118Z,1.20
2017-12-21T05:52:15.585Z,1.20
2017-12-21T05:54:42.028Z,1.20
2017-12-21T05:57:08.495Z,1.20
2017-12-21T05:59:34.946Z,1.30
2017-12-21T06:02:01.525Z,1.20
2017-12-21T06:04:28.007Z,1.10
2017-12-21T06:06:54.565Z,1.10
2017-12-21T06:09:21.013Z,1.10
2017-12-21T06:11:47.442Z,1.10
2017-12-21T06:14:13.869Z,1.20
2017-12-21T06:16:40.281Z,1.20
2017-12-21T06:19:06.769Z,1.10
2017-12-21T06:21:33.172Z,1.10
2017-12-21T06:23:59.573Z,1.00
2017-12-21T06:26:26.162Z,1.10
2017-12-21T06:28:52.565Z,1.10
2017-12-21T06:31:19.001Z,1.10
2017-12-21T06:33:45.458Z,1.10
2017-12-21T06:36:11.869Z,1.10
2017-12-21T06:38:38.312Z,1.10
2017-12-21T06:41:05.487Z,1.20
2017-12-21T06:43:32.656Z,1.10
2017-12-21T06:45:59.060Z,1.10
2017-12-21T06:48:25.492Z,1.10
2017-12-21T06:50:51.901Z,1.10
2017-12-21T06:53:18.379Z,1.10
2017-12-21T06:55:45.527Z,1.10
2017-12-21T06:58:12.713Z,1.10
2017-12-21T07:00:39.202Z,1.20
2017-12-21T07:03:05.629Z,1.10
2017-12-21T07:05:32.054Z,1.20
2017-12-21T07:07:58.502Z,1.20
2017-12-21T07:10:25.681Z,1.30
2017-12-21T07:12:52.896Z,1.30
2017-12-21T07:15:19.350Z,1.30
2017-12-21T07:17:45.806Z,1.20
2017-12-21T07:20:12.216Z,1.20
2017-12-21T07:22:39.402Z,1.30
2017-12-21T07:25:05.833Z,1.30
2017-12-21T07:27:32.266Z,1.30
2017-12-21T07:29:58.676Z,1.30
2017-12-21T07:32:25.113Z,1.30
2017-12-21T07:34:51.525Z,1.30
2017-12-21T07:37:17.988Z,1.30
2017-12-21T07:39:44.526Z,1.40
2017-12-21T07:42:10.940Z,1.40
2017-12-21T07:44:37.345Z,1.30
2017-12-21T07:47:03.837Z,1.20
2017-12-21T07:49:30.260Z,1.20
2017-12-21T07:51:56.742Z,1.20
2017-12-21T07:54:23.936Z,1.20
2017-12-21T07:56:50.365Z,1.20
2017-12-21T07:59:16.788Z,1.20
2017-12-21T08:01:43.194Z,1.20
2017-12-21T08:04:09.678Z,1.20
2017-12-21T08:06:36.095Z,1.20
2017-12-21T08:09:02.589Z,1.30
2017-12-21T08:11:29.782Z,1.30
2017-12-21T08:13:56.537Z,1.30
2017-12-21T08:16:22.958Z,1.30
2017-12-21T08:18:49.375Z,1.40
2017-12-21T08:21:15.811Z,1.40
2017-12-21T08:23:42.213Z,1.50
2017-12-21T08:26:08.677Z,1.50
2017-12-21T08:28:35.144Z,1.50
2017-12-21T08:31:01.600Z,1.60
2017-12-21T08:33:28.045Z,1.60
2017-12-21T08:35:55.246Z,1.80
2017-12-21T08:38:21.752Z,1.80
2017-12-21T08:40:48.967Z,1.90
2017-12-21T08:43:15.412Z,1.90
2017-12-21T08:45:41.846Z,2.00
2017-12-21T08:48:08.300Z,2.10
2017-12-21T08:50:35.451Z,2.20
2017-12-21T08:53:01.857Z,2.20
2017-12-21T08:55:28.280Z,2.40
2017-12-21T08:57:54.706Z,2.40
2017-12-21T09:00:21.139Z,2.50
2017-12-21T09:02:47.697Z,2.60
2017-12-21T09:05:14.936Z,2.80
2017-12-21T09:07:41.345Z,2.80
2017-12-21T09:10:07.799Z,2.80
2017-12-21T09:12:34.216Z,2.80
2017-12-21T09:15:00.656Z,2.80
2017-12-21T09:17:27.116Z,2.70
2017-12-21T09:19:53.556Z,2.70
2017-12-21T09:22:20.877Z,2.60
2017-12-21T09:24:47.385Z,2.60
2017-12-21T09:27:13.858Z,2.60
2017-12-21T09:29:40.309Z,2.60
2017-12-21T09:32:06.774Z,2.60
2017-12-21T09:34:33.206Z,2.60
2017-12-21T09:36:59.659Z,2.60
2017-12-21T09:39:26.129Z,2.60
2017-12-21T09:41:52.545Z,2.60
2017-12-21T09:44:18.985Z,2.70
2017-12-21T09:46:47.226Z,2.70
2017-12-21T09:49:13.667Z,2.70
2017-12-21T09:51:40.186Z,2.70
2017-12-21T09:54:06.686Z,2.60
2017-12-21T09:56:33.857Z,2.50
2017-12-21T09:59:00.309Z,2.50
2017-12-21T10:01:26.712Z,2.50
2017-12-21T10:03:53.584Z,2.60
2017-12-21T10:06:20.010Z,2.60
2017-12-21T10:08:46.416Z,2.60
2017-12-21T10:11:13.640Z,2.40
2017-12-21T10:13:40.053Z,2.40
2017-12-21T10:16:06.597Z,2.50
2017-12-21T10:18:32.997Z,2.40
2017-12-21T10:20:59.386Z,2.50
2017-12-21T10:23:26.597Z,2.50
2017-12-21T10:25:53.038Z,2.50
2017-12-21T10:28:19.423Z,2.50
2017-12-21T10:30:45.869Z,2.50
2017-12-21T10:33:12.613Z,2.50
2017-12-21T10:35:39.060Z,2.60
2017-12-21T10:38:05.488Z,2.60
2017-12-21T10:40:31.987Z,2.60
2017-12-21T10:42:58.430Z,2.70
2017-12-21T10:45:24.965Z,2.80
2017-12-21T10:47:51.454Z,3.20
2017-12-21T10:50:17.850Z,3.40
2017-12-21T10:52:44.480Z,3.80
2017-12-21T10:55:11.350Z,4.20
2017-12-21T10:57:38.598Z,4.20
2017-12-21T11:00:05.030Z,4.20
2017-12-21T11:02:31.528Z,4.10
2017-12-21T11:04:58.037Z,3.90
2017-12-21T11:07:24.519Z,3.90
2017-12-21T11:09:50.982Z,3.90
2017-12-21T11:12:17.470Z,3.90
2017-12-21T11:14:43.919Z,3.90
2017-12-21T11:17:10.370Z,4.00
2017-12-21T11:19:36.813Z,4.10
2017-12-21T11:22:03.307Z,4.10
2017-12-21T11:24:29.778Z,4.00
2017-12-21T11:26:57.034Z,3.90
2017-12-21T11:29:24.284Z,3.70
2017-12-21T11:31:51.811Z,3.70
2017-12-21T11:34:18.257Z,3.70
2017-12-21T11:36:44.781Z,3.60
2017-12-21T11:39:11.290Z,3.60
2017-12-21T11:41:37.742Z,3.90
2017-12-21T11:44:04.243Z,3.90
2017-12-21T11:46:31.424Z,4.20
2017-12-21T11:48:57.880Z,4.10
2017-12-21T11:51:24.329Z,4.00
2017-12-21T11:53:50.796Z,4.00
2017-12-21T11:56:17.969Z,3.90
2017-12-21T11:58:44.474Z,3.90
2017-12-21T12:01:11.000Z,3.90
2017-12-21T12:03:37.427Z,3.80
2017-12-21T12:06:03.993Z,3.80
2017-12-21T12:08:30.458Z,3.80
2017-12-21T12:10:56.914Z,3.80
2017-12-21T12:13:23.387Z,3.80
2017-12-21T12:15:49.806Z,3.70
2017-12-21T12:18:16.262Z,3.60
2017-12-21T12:20:42.749Z,3.60
2017-12-21T12:23:09.203Z,3.70
2017-12-21T12:25:35.646Z,3.60
2017-12-21T12:28:02.833Z,3.70
2017-12-21T12:30:30.014Z,3.70
2017-12-21T12:32:56.421Z,3.70
2017-12-21T12:35:22.872Z,3.70
2017-12-21T12:37:49.314Z,3.70
2017-12-21T12:40:15.771Z,3.70
2017-12-21T12:42:42.206Z,3.60
2017-12-21T12:45:09.423Z,3.70
2017-12-21T12:47:35.849Z,3.70
2017-12-21T12:50:03.030Z,3.70
2017-12-21T12:52:29.481Z,3.70
2017-12-21T12:54:56.642Z,3.80
2017-12-21T12:57:23.881Z,3.90
2017-12-21T12:59:51.077Z,3.80
2017-12-21T13:02:17.554Z,3.80
2017-12-21T13:04:44.018Z,3.80
2017-12-21T13:07:10.466Z,3.90
2017-12-21T13:09:36.889Z,3.80
2017-12-21T13:12:03.325Z,3.70
2017-12-21T13:14:29.796Z,3.80
2017-12-21T13:16:56.329Z,3.80
2017-12-21T13:19:23.577Z,3.80
2017-12-21T13:21:50.018Z,3.80
2017-12-21T13:24:16.434Z,3.80
2017-12-21T13:26:42.909Z,3.70
2017-12-21T13:29:09.342Z,3.70
2017-12-21T13:31:35.801Z,3.70
2017-12-21T13:34:02.941Z,3.60
2017-12-21T13:36:29.356Z,3.60
2017-12-21T13:38:55.944Z,3.60
2017-12-21T13:41:22.401Z,3.60
2017-12-21T13:43:48.817Z,3.60
2017-12-21T13:46:15.245Z,3.60
2017-12-21T13:48:41.729Z,3.60
2017-12-21T13:51:09.017Z,3.60
2017-12-21T13:53:35.476Z,3.60
2017-12-21T13:56:01.924Z,3.60
2017-12-21T13:58:28.382Z,3.70
2017-12-21T14:00:55.666Z,3.70
2017-12-21T14:03:22.158Z,3.70
2017-12-21T14:05:49.367Z,3.60
2017-12-21T14:08:15.841Z,3.60
2017-12-21T14:10:42.325Z,3.60
2017-12-21T14:13:08.765Z,3.60
2017-12-21T14:15:35.212Z,3.60
2017-12-21T14:18:01.642Z,3.60
2017-12-21T14:20:28.179Z,3.60
2017-12-21T14:22:54.595Z,3.60
2017-12-21T14:25:21.054Z,3.60
2017-12-21T14:27:47.505Z,3.60
2017-12-21T14:30:13.961Z,3.60
2017-12-21T14:32:48.404Z,3.50
2017-12-21T14:35:25.969Z,3.50
2017-12-21T14:38:01.798Z,3.50
2017-12-21T14:40:39.141Z,3.50
2017-12-21T14:43:08.439Z,3.50
2017-12-21T14:45:34.938Z,3.60
2017-12-21T14:48:01.405Z,3.50
2017-12-21T14:50:28.072Z,3.50
2017-12-21T14:52:54.489Z,3.50
2017-12-21T14:55:20.974Z,3.50
2017-12-21T14:57:47.607Z,3.50
2017-12-21T15:00:14.038Z,3.50
2017-12-21T15:02:41.230Z,3.50
2017-12-21T15:05:07.662Z,3.50
2017-12-21T15:07:34.112Z,3.60
2017-12-21T15:10:00.543Z,3.50
2017-12-21T15:12:26.966Z,3.50
2017-12-21T15:14:53.488Z,3.40
2017-12-21T15:17:19.935Z,3.40
2017-12-21T15:19:46.378Z,3.40
2017-12-21T15:22:12.818Z,3.40
2017-12-21T15:24:39.238Z,3.40
2017-12-21T15:27:05.709Z,3.40
2017-12-21T15:29:32.122Z,3.30
2017-12-21T15:31:58.589Z,3.30
2017-12-21T15:34:25.044Z,3.40
2017-12-21T15:36:52.225Z,3.30
2017-12-21T15:39:18.680Z,3.30
2017-12-21T15:41:45.105Z,3.30
2017-12-21T15:44:11.522Z,3.30
2017-12-21T15:46:37.980Z,3.30
2017-12-21T15:49:04.401Z,3.30
2017-12-21T15:51:30.881Z,3.30
2017-12-21T15:53:57.327Z,3.30
2017-12-21T15:56:24.532Z,3.30
2017-12-21T15:58:50.981Z,3.30
2017-12-21T16:01:17.397Z,3.30
2017-12-21T16:03:43.890Z,3.30
2017-12-21T16:06:10.397Z,3.30
2017-12-21T16:08:36.849Z,3.20
2017-12-21T16:11:03.345Z,3.20
2017-12-21T16:13:30.610Z,3.10
2017-12-21T16:15:57.083Z,3.10
2017-12-21T16:18:23.554Z,3.10
2017-12-21T16:20:50.102Z,3.10
2017-12-21T16:23:16.607Z,3.10
2017-12-21T16:25:43.033Z,3.10
2017-12-21T16:28:09.561Z,3.00
2017-12-21T16:30:36.713Z,3.10
2017-12-21T16:33:03.195Z,3.10
2017-12-21T16:35:29.921Z,3.10
2017-12-21T16:37:56.391Z,3.10
2017-12-21T16:40:22.897Z,3.00
2017-12-21T16:42:49.450Z,3.10
2017-12-21T16:45:16.619Z,3.10
2017-12-21T16:47:43.121Z,3.00
2017-12-21T16:50:10.404Z,3.00
2017-12-21T16:52:36.939Z,2.90
2017-12-21T16:55:03.471Z,2.90
2017-12-21T16:57:30.646Z,2.90
2017-12-21T16:59:57.174Z,2.80
2017-12-21T17:02:23.606Z,3.00
2017-12-21T17:04:50.041Z,3.00
2017-12-21T17:07:16.533Z,3.00
2017-12-21T17:09:43.765Z,3.10
2017-12-21T17:12:10.207Z,3.10
2017-12-21T17:14:36.733Z,3.10
2017-12-21T17:17:03.221Z,3.20
2017-12-21T17:19:29.750Z,3.20
2017-12-21T17:21:56.227Z,3.20
2017-12-21T17:24:22.759Z,3.20
2017-12-21T17:26:49.278Z,3.20
2017-12-21T17:29:15.755Z,3.20
2017-12-21T17:31:42.206Z,3.30
2017-12-21T17:34:08.667Z,3.20
2017-12-21T17:36:35.141Z,3.20
2017-12-21T17:39:01.630Z,3.20
2017-12-21T17:41:28.143Z,3.20
2017-12-21T17:43:54.684Z,3.20
2017-12-21T17:46:21.926Z,3.30
2017-12-21T17:48:48.510Z,3.20
2017-12-21T17:51:15.040Z,3.30
2017-12-21T17:53:41.493Z,3.30
2017-12-21T17:56:08.097Z,3.30
2017-12-21T17:58:34.564Z,3.30
2017-12-21T18:01:01.141Z,3.30
2017-12-21T18:03:28.450Z,3.20
2017-12-21T18:05:54.988Z,3.20
2017-12-21T18:08:21.449Z,3.30
2017-12-21T18:10:48.705Z,3.30
2017-12-21T18:13:15.170Z,3.30
2017-12-21T18:15:41.656Z,3.30
2017-12-21T18:18:08.147Z,3.30
2017-12-21T18:20:34.654Z,3.20
2017-12-21T18:23:01.907Z,3.20
2017-12-21T18:25:29.406Z,3.20
2017-12-21T18:27:55.889Z,3.20
2017-12-21T18:30:23.187Z,3.20
2017-12-21T18:32:50.541Z,3.20
2017-12-21T18:35:17.022Z,3.20
2017-12-21T18:37:43.551Z,3.20
2017-12-21T18:40:10.802Z,3.20
2017-12-21T18:42:37.437Z,3.20
2017-12-21T18:45:03.984Z,3.20
2017-12-21T18:47:31.231Z,3.20
2017-12-21T18:49:57.805Z,3.20
2017-12-21T18:52:24.310Z,3.20
2017-12-21T18:54:51.525Z,3.20
2017-12-21T18:57:18.030Z,3.10
2017-12-21T18:59:44.688Z,3.20
2017-12-21T19:02:11.199Z,3.20
2017-12-21T19:04:37.704Z,3.20
2017-12-21T19:07:04.918Z,3.20
2017-12-21T19:09:31.456Z,3.20
2017-12-21T19:11:57.926Z,3.20
2017-12-21T19:14:25.174Z,3.20
2017-12-21T19:16:52.401Z,3.20
2017-12-21T19:19:18.933Z,3.20
2017-12-21T19:21:45.685Z,3.30
2017-12-21T19:24:12.162Z,3.20
2017-12-21T19:26:38.635Z,3.20
2017-12-21T19:29:05.121Z,3.20
2017-12-21T19:31:32.341Z,3.20
2017-12-21T19:33:58.828Z,3.10
2017-12-21T19:36:25.311Z,3.10
2017-12-21T19:38:51.813Z,3.10
2017-12-21T19:41:18.331Z,3.10
2017-12-21T19:43:44.779Z,3.10
2017-12-21T19:46:11.267Z,3.10
2017-12-21T19:48:37.718Z,3.20
2017-12-21T19:51:04.159Z,3.20
2017-12-21T19:53:30.647Z,3.20
2017-12-21T19:55:57.143Z,3.10
2017-12-21T19:58:23.659Z,3.10
2017-12-21T20:00:50.154Z,3.10
2017-12-21T20:03:17.412Z,3.00
2017-12-21T20:05:43.879Z,3.00
2017-12-21T20:08:10.386Z,3.10
2017-12-21T20:10:37.593Z,3.10
2017-12-21T20:13:04.012Z,3.10
2017-12-21T20:15:30.475Z,3.20
2017-12-21T20:17:56.947Z,3.10
2017-12-21T20:20:24.163Z,3.10
2017-12-21T20:22:50.634Z,3.10
2017-12-21T20:25:17.874Z,3.10
2017-12-21T20:27:44.380Z,3.10
2017-12-21T20:30:10.878Z,3.10
2017-12-21T20:32:37.424Z,3.10
2017-12-21T20:35:03.973Z,3.10
2017-12-21T20:37:30.475Z,3.10
2017-12-21T20:39:56.939Z,3.20
2017-12-21T20:42:23.435Z,3.10
2017-12-21T20:44:49.935Z,3.20
2017-12-21T20:47:16.418Z,3.20
2017-12-21T20:49:42.911Z,3.10
2017-12-21T20:52:09.381Z,3.20
2017-12-21T20:54:35.885Z,3.20
2017-12-21T20:57:03.115Z,3.10
2017-12-21T20:59:29.598Z,3.10
2017-12-21T21:01:56.130Z,3.10
2017-12-21T21:04:22.651Z,3.10
2017-12-21T21:06:49.943Z,3.10
2017-12-21T21:09:16.488Z,3.10
2017-12-21T21:11:42.962Z,3.10
2017-12-21T21:14:09.448Z,3.10
2017-12-21T21:16:35.994Z,3.00
2017-12-21T21:19:02.768Z,3.00
2017-12-21T21:21:29.502Z,3.10
2017-12-21T21:23:56.795Z,3.10
2017-12-21T21:26:23.236Z,3.00
2017-12-21T21:28:49.812Z,3.10
2017-12-21T21:31:16.315Z,3.10
2017-12-21T21:33:42.782Z,3.10
2017-12-21T21:36:09.319Z,3.10
2017-12-21T21:38:35.752Z,3.10
2017-12-21T21:41:02.222Z,3.10
2017-12-21T21:43:28.759Z,3.10
2017-12-21T21:45:56.036Z,3.20
2017-12-21T21:48:22.515Z,3.20
2017-12-21T21:50:49.076Z,3.20
2017-12-21T21:53:15.625Z,3.10
2017-12-21T21:55:42.107Z,3.10
2017-12-21T21:58:09.317Z,3.10
2017-12-21T22:00:35.849Z,3.10
2017-12-21T22:03:02.331Z,3.10
2017-12-21T22:05:29.557Z,3.10
2017-12-21T22:07:56.039Z,3.10
2017-12-21T22:10:23.255Z,3.10
2017-12-21T22:12:51.259Z,3.10
2017-12-21T22:15:18.476Z,3.10
2017-12-21T22:17:44.932Z,3.10
2017-12-21T22:20:11.429Z,3.10
2017-12-21T22:22:38.110Z,3.10
2017-12-21T22:25:04.777Z,3.10
2017-12-21T22:27:31.382Z,3.10
2017-12-21T22:29:57.912Z,3.10
2017-12-21T22:32:24.389Z,3.00
2017-12-21T22:34:50.871Z,3.00
2017-12-21T22:37:17.378Z,3.10
2017-12-21T22:39:43.834Z,3.00
2017-12-21T22:42:10.367Z,3.10
2017-12-21T22:44:36.852Z,3.00
2017-12-21T22:47:03.339Z,3.00
2017-12-21T22:49:30.619Z,3.00
2017-12-21T22:51:57.255Z,2.90
2017-12-21T22:54:24.450Z,2.90
2017-12-21T22:56:50.913Z,2.90
2017-12-21T22:59:17.376Z,2.90
2017-12-21T23:01:43.845Z,2.90
2017-12-21T23:04:10.309Z,2.90
2017-12-21T23:06:36.768Z,2.90
2017-12-21T23:09:04.002Z,2.90
2017-12-21T23:11:30.456Z,2.80
2017-12-21T23:13:57.701Z,2.80
2017-12-21T23:16:24.145Z,2.80
2017-12-21T23:18:50.614Z,2.80
2017-12-21T23:21:17.187Z,2.80
2017-12-21T23:23:43.653Z,2.80
2017-12-21T23:26:10.841Z,2.80
2017-12-21T23:28:37.317Z,2.80
2017-12-21T23:31:03.809Z,2.80
2017-12-21T23:33:30.253Z,2.80
2017-12-21T23:35:56.725Z,2.80
2017-12-21T23:38:23.237Z,2.80
2017-12-21T23:40:49.718Z,2.80
2017-12-21T23:43:17.004Z,2.70
2017-12-21T23:45:43.529Z,2.70
2017-12-21T23:48:09.990Z,2.70
2017-12-21T23:50:36.490Z,2.70
2017-12-21T23:53:02.976Z,2.70
2017-12-21T23:55:29.489Z,2.80
2017-12-21T23:57:56.009Z,2.80
